Centralia, Illinois
Current Conditions -  °F | °C
As of 3:35 AM on Tuesday 21 Oct 2014 (Local Time) from KENL Reporting Station
Clear Clear  
Wind Chill: 44°   Ceiling: Unl
Heat Index: 47°   Visibility: 10mi
Dew Point: 42°   Wind: 5mph
Humidity: 85%   Direction: 270°W
Pressure: 30.02"   Gusts: NA
Location:  38.53°N, 89.13°W
Report Text: KENL 210835Z AUTO 27004KT 10SM CLR 08/06 A3002 RMK AO2 T00810058
Loading
Personal Weather Stations






























Interactive Weather Map
Tropical Storm Tracking
New forecast layout! Learn more

10-Day Weather Forecast

Advertisements
Track Severe Weather on mobile